GLD1410 SBCT-SBSP
Flight info
| Callsign | GLD1410 |
|---|---|
| Flight time | 0h 37m |
| Altitude | 3100 |
| Route | DCT EDVEB UM548 KOXAG UM540 ANISE |
| Aircraft | C700/M-SDFGIRY/S |
Departure
| Time | 2026-05-05 01:07 |
|---|---|
| Airport | Curitiba-Afonso Pena International Airport (SBCT) |
Arrival
| Time | 2026-05-05 01:44 |
|---|---|
| Airport | Congonhas–Deputado Freitas Nobre Airport (SBSP) |
| Time | Latitude | Longitude | Altitude | Speed | Heading |
|---|---|---|---|---|---|
| 2026-05-05 00:44 | -25.53090 | -49.18043 | 2990 ft | 0 kts | 316° |
| 2026-05-05 01:02 | -25.53084 | -49.18039 | 2990 ft | 1 kts | 49° |
| 2026-05-05 01:02 | -25.53045 | -49.17997 | 2990 ft | 14 kts | 43° |
| 2026-05-05 01:02 | -25.53016 | -49.17940 | 2990 ft | 9 kts | 76° |
| 2026-05-05 01:03 | -25.52956 | -49.17891 | 2990 ft | 13 kts | 343° |
| 2026-05-05 01:03 | -25.52876 | -49.17972 | 2988 ft | 19 kts | 319° |
| 2026-05-05 01:03 | -25.52731 | -49.17997 | 2989 ft | 24 kts | 2° |
| 2026-05-05 01:03 | -25.52644 | -49.18000 | 2990 ft | 0 kts | 358° |
| 2026-05-05 01:04 | -25.52640 | -49.18000 | 2990 ft | 4 kts | 358° |
| 2026-05-05 01:04 | -25.52542 | -49.18003 | 2990 ft | 24 kts | 358° |
| 2026-05-05 01:05 | -25.52392 | -49.18091 | 2990 ft | 28 kts | 314° |
| 2026-05-05 01:05 | -25.52269 | -49.18212 | 2991 ft | 15 kts | 332° |
| 2026-05-05 01:05 | -25.52220 | -49.18252 | 2991 ft | 7 kts | 198° |
| 2026-05-05 01:05 | -25.52261 | -49.18238 | 2991 ft | 0 kts | 133° |
| 2026-05-05 01:06 | -25.52262 | -49.18237 | 2991 ft | 5 kts | 133° |
| 2026-05-05 01:06 | -25.52532 | -49.17933 | 2990 ft | 108 kts | 135° |
| 2026-05-05 01:06 | -25.53264 | -49.17100 | 3243 ft | 180 kts | 135° |
| 2026-05-05 01:07 | -25.54182 | -49.16032 | 4421 ft | 206 kts | 126° |
| 2026-05-05 01:07 | -25.54579 | -49.14484 | 5623 ft | 224 kts | 86° |
| 2026-05-05 01:07 | -25.54407 | -49.12733 | 6941 ft | 233 kts | 82° |
| 2026-05-05 01:07 | -25.54281 | -49.10854 | 8147 ft | 257 kts | 86° |
| 2026-05-05 01:08 | -25.54222 | -49.08785 | 9332 ft | 281 kts | 87° |
| 2026-05-05 01:08 | -25.54147 | -49.06530 | 10513 ft | 303 kts | 86° |
| 2026-05-05 01:08 | -25.54052 | -49.04105 | 11617 ft | 327 kts | 87° |
| 2026-05-05 01:08 | -25.53958 | -49.01560 | 13151 ft | 333 kts | 87° |
| 2026-05-05 01:09 | -25.53865 | -48.98966 | 14640 ft | 342 kts | 88° |
| 2026-05-05 01:09 | -25.53764 | -48.96296 | 15887 ft | 353 kts | 88° |
| 2026-05-05 01:09 | -25.53656 | -48.93574 | 17135 ft | 363 kts | 87° |
| 2026-05-05 01:09 | -25.53198 | -48.90782 | 18301 ft | 375 kts | 76° |
| 2026-05-05 01:10 | -25.52547 | -48.87955 | 19406 ft | 383 kts | 77° |
| 2026-05-05 01:10 | -25.51931 | -48.85060 | 20488 ft | 390 kts | 78° |
| 2026-05-05 01:10 | -25.51297 | -48.82107 | 21556 ft | 398 kts | 78° |
| 2026-05-05 01:10 | -25.50626 | -48.79102 | 22596 ft | 406 kts | 78° |
| 2026-05-05 01:11 | -25.49948 | -48.76037 | 23610 ft | 414 kts | 78° |
| 2026-05-05 01:11 | -25.49264 | -48.72916 | 24497 ft | 420 kts | 78° |
| 2026-05-05 01:11 | -25.48582 | -48.69804 | 25405 ft | 426 kts | 79° |
| 2026-05-05 01:11 | -25.47872 | -48.66590 | 26327 ft | 432 kts | 79° |
| 2026-05-05 01:12 | -25.47153 | -48.63337 | 27171 ft | 438 kts | 79° |
| 2026-05-05 01:12 | -25.46424 | -48.60040 | 28016 ft | 444 kts | 79° |
| 2026-05-05 01:12 | -25.45685 | -48.56698 | 28856 ft | 450 kts | 79° |
| 2026-05-05 01:12 | -25.44936 | -48.53315 | 29696 ft | 456 kts | 79° |
| 2026-05-05 01:13 | -25.44175 | -48.49885 | 30490 ft | 462 kts | 79° |
| 2026-05-05 01:13 | -25.43402 | -48.46408 | 31116 ft | 470 kts | 79° |
| 2026-05-05 01:13 | -25.42604 | -48.42820 | 31172 ft | 492 kts | 79° |
| 2026-05-05 01:13 | -25.41769 | -48.39066 | 31174 ft | 513 kts | 78° |
| 2026-05-05 01:14 | -25.40897 | -48.35166 | 31174 ft | 527 kts | 78° |
| 2026-05-05 01:14 | -25.40020 | -48.31264 | 31173 ft | 532 kts | 78° |
| 2026-05-05 01:14 | -25.38239 | -48.23300 | 31173 ft | 534 kts | 78° |
| 2026-05-05 01:15 | -25.36452 | -48.15352 | 31174 ft | 534 kts | 78° |
| 2026-05-05 01:15 | -25.34660 | -48.07386 | 31171 ft | 534 kts | 78° |
| 2026-05-05 01:16 | -25.32874 | -47.99479 | 31170 ft | 534 kts | 78° |
| 2026-05-05 01:16 | -25.31372 | -47.91469 | 31168 ft | 532 kts | 81° |
| 2026-05-05 01:17 | -25.29938 | -47.83444 | 31166 ft | 532 kts | 81° |
| 2026-05-05 01:17 | -25.28494 | -47.75417 | 31164 ft | 534 kts | 81° |
| 2026-05-05 01:18 | -25.27044 | -47.67372 | 31165 ft | 533 kts | 81° |
| 2026-05-05 01:18 | -25.25604 | -47.59400 | 31165 ft | 533 kts | 81° |
| 2026-05-05 01:19 | -25.24146 | -47.51371 | 31102 ft | 529 kts | 80° |
| 2026-05-05 01:19 | -25.23430 | -47.47443 | 30720 ft | 515 kts | 80° |
| 2026-05-05 01:19 | -25.22733 | -47.43605 | 30281 ft | 507 kts | 80° |
| 2026-05-05 01:20 | -25.22038 | -47.39793 | 29795 ft | 502 kts | 80° |
| 2026-05-05 01:20 | -25.21350 | -47.36036 | 29352 ft | 498 kts | 80° |
| 2026-05-05 01:20 | -25.20666 | -47.32300 | 28909 ft | 495 kts | 80° |
| 2026-05-05 01:20 | -25.19984 | -47.28588 | 28470 ft | 491 kts | 80° |
| 2026-05-05 01:21 | -25.19316 | -47.24952 | 28040 ft | 488 kts | 80° |
| 2026-05-05 01:21 | -25.18644 | -47.21293 | 27605 ft | 485 kts | 80° |
| 2026-05-05 01:21 | -25.17973 | -47.17656 | 27181 ft | 482 kts | 80° |
| 2026-05-05 01:21 | -25.17307 | -47.14043 | 26755 ft | 477 kts | 80° |
| 2026-05-05 01:22 | -25.16646 | -47.10469 | 26332 ft | 474 kts | 79° |
| 2026-05-05 01:22 | -25.15979 | -47.06910 | 25908 ft | 472 kts | 78° |
| 2026-05-05 01:22 | -25.14961 | -47.03475 | 25487 ft | 470 kts | 68° |
| 2026-05-05 01:22 | -25.13467 | -47.00279 | 25070 ft | 467 kts | 58° |
| 2026-05-05 01:23 | -25.11579 | -46.97444 | 24664 ft | 464 kts | 49° |
| 2026-05-05 01:23 | -25.09293 | -46.94947 | 24250 ft | 462 kts | 40° |
| 2026-05-05 01:23 | -25.06700 | -46.92890 | 23840 ft | 458 kts | 30° |
| 2026-05-05 01:23 | -25.03966 | -46.91110 | 23395 ft | 454 kts | 29° |
| 2026-05-05 01:24 | -25.01263 | -46.89336 | 22981 ft | 451 kts | 30° |
| 2026-05-05 01:24 | -24.98578 | -46.87571 | 22580 ft | 447 kts | 30° |
| 2026-05-05 01:24 | -24.95914 | -46.85828 | 22183 ft | 444 kts | 29° |
| 2026-05-05 01:24 | -24.93268 | -46.84098 | 21788 ft | 441 kts | 30° |
| 2026-05-05 01:25 | -24.90639 | -46.82377 | 21396 ft | 438 kts | 30° |
| 2026-05-05 01:25 | -24.88028 | -46.80669 | 21005 ft | 435 kts | 30° |
| 2026-05-05 01:25 | -24.85464 | -46.78995 | 20621 ft | 433 kts | 29° |
| 2026-05-05 01:25 | -24.82888 | -46.77310 | 20236 ft | 430 kts | 30° |
| 2026-05-05 01:26 | -24.80324 | -46.75636 | 19853 ft | 427 kts | 29° |
| 2026-05-05 01:26 | -24.77777 | -46.73975 | 19471 ft | 424 kts | 30° |
| 2026-05-05 01:26 | -24.75249 | -46.72324 | 19090 ft | 422 kts | 30° |
| 2026-05-05 01:26 | -24.72732 | -46.70683 | 18719 ft | 419 kts | 30° |
| 2026-05-05 01:27 | -24.70228 | -46.69052 | 18332 ft | 418 kts | 30° |
| 2026-05-05 01:27 | -24.67737 | -46.67429 | 17936 ft | 414 kts | 30° |
| 2026-05-05 01:27 | -24.65271 | -46.65821 | 17565 ft | 411 kts | 30° |
| 2026-05-05 01:27 | -24.62819 | -46.64269 | 17233 ft | 420 kts | 26° |
| 2026-05-05 01:28 | -24.60071 | -46.63133 | 17210 ft | 424 kts | 14° |
| 2026-05-05 01:28 | -24.57152 | -46.62576 | 17201 ft | 426 kts | 3° |
| 2026-05-05 01:28 | -24.54190 | -46.62483 | 17202 ft | 426 kts | 357° |
| 2026-05-05 01:28 | -24.51241 | -46.62094 | 17196 ft | 431 kts | 14° |
| 2026-05-05 01:29 | -24.48365 | -46.61214 | 17197 ft | 431 kts | 9° |
| 2026-05-05 01:29 | -24.45389 | -46.60892 | 17201 ft | 427 kts | 359° |
| 2026-05-05 01:29 | -24.42438 | -46.61161 | 17202 ft | 425 kts | 348° |
| 2026-05-05 01:29 | -24.39629 | -46.61975 | 17202 ft | 423 kts | 338° |
| 2026-05-05 01:30 | -24.36951 | -46.63143 | 16908 ft | 405 kts | 334° |
| 2026-05-05 01:30 | -24.34420 | -46.64371 | 16558 ft | 392 kts | 333° |
| 2026-05-05 01:30 | -24.31943 | -46.65578 | 16212 ft | 387 kts | 334° |
| 2026-05-05 01:30 | -24.29478 | -46.66736 | 15876 ft | 384 kts | 335° |
| 2026-05-05 01:31 | -24.27005 | -46.67836 | 15532 ft | 383 kts | 336° |
| 2026-05-05 01:31 | -24.24521 | -46.68867 | 15199 ft | 382 kts | 338° |
| 2026-05-05 01:31 | -24.21969 | -46.69624 | 14857 ft | 383 kts | 351° |
| 2026-05-05 01:31 | -24.19311 | -46.69418 | 14511 ft | 384 kts | 9° |
| 2026-05-05 01:32 | -24.16765 | -46.68695 | 14194 ft | 383 kts | 14° |
| 2026-05-05 01:32 | -24.14252 | -46.67752 | 13843 ft | 381 kts | 20° |
| 2026-05-05 01:32 | -24.11828 | -46.66609 | 12953 ft | 375 kts | 23° |
| 2026-05-05 01:32 | -24.09496 | -46.65421 | 12044 ft | 365 kts | 24° |
| 2026-05-05 01:33 | -24.07227 | -46.64237 | 11150 ft | 357 kts | 24° |
| 2026-05-05 01:33 | -24.05015 | -46.63073 | 10297 ft | 350 kts | 24° |
| 2026-05-05 01:33 | -24.02824 | -46.61918 | 10364 ft | 364 kts | 24° |
| 2026-05-05 01:33 | -24.00496 | -46.60696 | 10442 ft | 376 kts | 24° |
| 2026-05-05 01:34 | -23.98143 | -46.59468 | 10448 ft | 381 kts | 24° |
| 2026-05-05 01:34 | -23.95743 | -46.58216 | 10450 ft | 383 kts | 24° |
| 2026-05-05 01:34 | -23.93324 | -46.56998 | 10449 ft | 382 kts | 19° |
| 2026-05-05 01:34 | -23.90715 | -46.56597 | 10434 ft | 380 kts | 354° |
| 2026-05-05 01:35 | -23.88232 | -46.57438 | 10472 ft | 374 kts | 329° |
| 2026-05-05 01:35 | -23.86266 | -46.59257 | 10484 ft | 371 kts | 311° |
| 2026-05-05 01:35 | -23.84605 | -46.61412 | 10496 ft | 370 kts | 308° |
| 2026-05-05 01:35 | -23.82942 | -46.63560 | 10506 ft | 371 kts | 310° |
| 2026-05-05 01:36 | -23.81182 | -46.65566 | 10515 ft | 355 kts | 315° |
| 2026-05-05 01:36 | -23.79361 | -46.67189 | 10502 ft | 323 kts | 324° |
| 2026-05-05 01:36 | -23.77486 | -46.68413 | 10280 ft | 308 kts | 329° |
| 2026-05-05 01:36 | -23.75657 | -46.69510 | 9946 ft | 301 kts | 328° |
| 2026-05-05 01:37 | -23.73898 | -46.70697 | 9596 ft | 282 kts | 324° |
| 2026-05-05 01:37 | -23.72312 | -46.71853 | 9093 ft | 267 kts | 324° |
| 2026-05-05 01:37 | -23.70813 | -46.72904 | 8737 ft | 252 kts | 325° |
| 2026-05-05 01:37 | -23.69374 | -46.73891 | 8435 ft | 238 kts | 325° |
| 2026-05-05 01:38 | -23.68015 | -46.74833 | 8168 ft | 226 kts | 324° |
| 2026-05-05 01:38 | -23.66709 | -46.75740 | 7909 ft | 220 kts | 324° |
| 2026-05-05 01:38 | -23.65424 | -46.76632 | 7653 ft | 219 kts | 324° |
| 2026-05-05 01:38 | -23.64141 | -46.77521 | 7405 ft | 218 kts | 324° |
| 2026-05-05 01:39 | -23.62860 | -46.78410 | 7151 ft | 218 kts | 324° |
| 2026-05-05 01:39 | -23.61581 | -46.79293 | 6895 ft | 217 kts | 325° |
| 2026-05-05 01:39 | -23.60324 | -46.80149 | 6645 ft | 216 kts | 328° |
| 2026-05-05 01:39 | -23.58901 | -46.80666 | 6379 ft | 218 kts | 348° |
| 2026-05-05 01:40 | -23.57380 | -46.80700 | 6133 ft | 221 kts | 5° |
| 2026-05-05 01:40 | -23.55905 | -46.80223 | 5877 ft | 223 kts | 23° |
| 2026-05-05 01:40 | -23.54624 | -46.79269 | 5621 ft | 224 kts | 41° |
| 2026-05-05 01:40 | -23.53666 | -46.77940 | 5379 ft | 224 kts | 57° |
| 2026-05-05 01:41 | -23.53052 | -46.76392 | 5125 ft | 223 kts | 76° |
| 2026-05-05 01:41 | -23.52950 | -46.74713 | 4867 ft | 222 kts | 94° |
| 2026-05-05 01:41 | -23.53341 | -46.73115 | 4768 ft | 216 kts | 113° |
| 2026-05-05 01:41 | -23.54140 | -46.71742 | 4642 ft | 222 kts | 130° |
| 2026-05-05 01:42 | -23.55289 | -46.70736 | 4314 ft | 202 kts | 148° |
| 2026-05-05 01:42 | -23.56381 | -46.70009 | 4265 ft | 174 kts | 146° |
| 2026-05-05 01:42 | -23.57405 | -46.69292 | 4130 ft | 165 kts | 146° |
| 2026-05-05 01:42 | -23.58308 | -46.68697 | 3740 ft | 147 kts | 146° |
| 2026-05-05 01:43 | -23.59133 | -46.68112 | 3349 ft | 137 kts | 144° |
| 2026-05-05 01:43 | -23.59923 | -46.67559 | 3169 ft | 137 kts | 146° |
| 2026-05-05 01:43 | -23.60716 | -46.66996 | 2964 ft | 134 kts | 146° |
| 2026-05-05 01:43 | -23.61500 | -46.66447 | 2773 ft | 134 kts | 146° |
| 2026-05-05 01:44 | -23.62280 | -46.65920 | 2611 ft | 123 kts | 146° |
| 2026-05-05 01:44 | -23.62840 | -46.65532 | 2602 ft | 51 kts | 145° |
| 2026-05-05 01:44 | -23.62986 | -46.65425 | 2604 ft | 23 kts | 147° |
| 2026-05-05 01:44 | -23.63123 | -46.65328 | 2604 ft | 12 kts | 148° |
| 2026-05-05 01:45 | -23.63215 | -46.65265 | 2604 ft | 19 kts | 148° |
| 2026-05-05 01:45 | -23.63363 | -46.65202 | 2601 ft | 27 kts | 177° |
| 2026-05-05 01:45 | -23.63404 | -46.65266 | 2596 ft | 13 kts | 296° |
| 2026-05-05 01:45 | -23.63368 | -46.65309 | 2592 ft | 6 kts | 291° |
| 2026-05-05 01:46 | -23.63375 | -46.65336 | 2596 ft | 3 kts | 239° |
| 2026-05-05 01:46 | -23.63403 | -46.65345 | 2595 ft | 4 kts | 155° |
| 2026-05-05 01:46 | -23.63462 | -46.65312 | 2590 ft | 13 kts | 155° |
| 2026-05-05 01:46 | -23.63518 | -46.65322 | 2581 ft | 3 kts | 236° |
| 2026-05-05 01:47 | -23.63526 | -46.65336 | 2583 ft | 0 kts | 236° |